Time;durP1;ratioP1;P1;durP2;ratioP2;P2;SDS_P1;SDS_P2;PMS_P1;PMS_P2;Temp;Humidity;BMP_temperature;BMP_pressure;BME280_temperature;BME280_humidity;BME280_pressure;Samples;Min_cycle;Max_cycle;Signal;HPM_P1;HPM_P2
2021/03/16 00:00:17;;;;;;;10.50;5.75;;;2.40;99.90;;;1.80;82.38;100075.81;5068641;28;20040;-49
2021/03/16 00:02:43;;;;;;;15.65;5.82;;;2.40;99.90;;;1.76;82.42;100076.94;5060036;28;20044;-48
2021/03/16 00:05:10;;;;;;;8.75;5.72;;;2.40;99.90;;;1.71;82.70;100076.41;5048486;28;20396;-50
2021/03/16 00:07:36;;;;;;;13.80;6.88;;;2.30;99.90;;;1.69;82.71;100078.22;5058330;28;20048;-49
2021/03/16 00:10:03;;;;;;;15.68;7.93;;;2.30;99.90;;;1.69;82.52;100081.63;5060240;28;20496;-47
2021/03/16 00:12:29;;;;;;;10.88;6.95;;;2.30;99.90;;;1.71;82.59;100074.66;5051963;28;20392;-49
2021/03/16 00:14:55;;;;;;;10.98;6.35;;;2.30;99.90;;;1.74;82.28;100071.06;5052599;28;20064;-52
2021/03/16 00:17:21;;;;;;;9.30;5.28;;;2.30;99.90;;;1.71;81.95;100074.66;5064826;28;20045;-48
2021/03/16 00:19:47;;;;;;;10.85;4.65;;;2.30;99.90;;;1.63;81.81;100071.75;5068298;28;20380;-50
2021/03/16 00:22:13;;;;;;;8.20;4.25;;;2.30;99.90;;;1.75;80.60;100070.13;5065168;28;20040;-51
2021/03/16 00:24:39;;;;;;;7.63;4.05;;;2.30;99.90;;;1.73;80.69;100066.84;5061097;28;20396;-52
2021/03/16 00:27:05;;;;;;;9.60;4.82;;;2.30;99.90;;;1.64;80.79;100063.13;5055716;28;20049;-50
2021/03/16 00:29:32;;;;;;;12.20;4.68;;;2.30;99.90;;;1.59;81.10;100071.09;5068218;28;20113;-48
2021/03/16 00:31:57;;;;;;;10.60;5.40;;;2.20;99.90;;;1.55;81.18;100079.94;5063546;28;20098;-53
2021/03/16 00:34:23;;;;;;;10.93;4.75;;;2.20;99.90;;;1.44;81.66;100091.78;5048222;28;20033;-52
2021/03/16 00:36:49;;;;;;;9.52;5.22;;;2.10;99.90;;;1.35;82.59;100090.63;5050501;28;20168;-52
2021/03/16 00:39:16;;;;;;;7.95;3.97;;;2.00;99.90;;;1.31;83.17;100091.75;5066668;28;20028;-49
2021/03/16 00:41:42;;;;;;;10.43;4.70;;;1.90;99.90;;;1.29;82.91;100093.56;5050427;28;20064;-53
2021/03/16 00:44:08;;;;;;;10.55;4.50;;;1.90;99.90;;;1.28;83.20;100091.94;5068243;28;20467;-47
2021/03/16 00:46:35;;;;;;;12.18;6.22;;;1.90;99.90;;;1.34;82.97;100083.84;5067004;28;20040;-52
2021/03/16 00:49:01;;;;;;;12.95;5.93;;;1.90;99.90;;;1.45;83.85;100089.13;5049881;28;20037;-50
2021/03/16 00:51:28;;;;;;;7.03;3.05;;;2.00;99.90;;;1.81;83.98;100085.16;5051099;28;20503;-51
2021/03/16 00:53:55;;;;;;;13.75;4.10;;;2.20;99.90;;;2.11;82.41;100088.31;5066073;28;20772;-49
2021/03/16 00:56:21;;;;;;;9.55;3.78;;;2.50;99.90;;;2.15;83.15;100086.38;5049976;28;20064;-52
2021/03/16 00:58:47;;;;;;;7.93;2.80;;;2.60;99.90;;;2.07;83.61;100081.72;5050458;28;20029;-49
2021/03/16 01:01:13;;;;;;;3.33;1.40;;;2.60;99.90;;;2.14;83.86;100077.84;5049243;28;20040;-50
2021/03/16 01:03:39;;;;;;;5.63;2.80;;;2.70;99.90;;;2.24;83.00;100078.88;5050078;28;20174;-50
2021/03/16 01:06:05;;;;;;;5.45;2.33;;;2.70;99.90;;;2.30;82.34;100073.34;5062469;28;20072;-52
2021/03/16 01:08:31;;;;;;;6.28;2.03;;;2.80;99.90;;;2.26;81.88;100078.78;5071442;28;20096;-52
2021/03/16 01:11:00;;;;;;;4.32;2.08;;;2.80;99.90;;;2.24;82.60;100073.75;5067224;28;20040;-53
2021/03/16 01:13:27;;;;;;;3.25;1.33;;;2.80;99.90;;;2.61;80.07;100071.28;5068233;28;20048;-52
2021/03/16 01:15:53;;;;;;;2.33;1.20;;;3.00;99.90;;;2.75;79.23;100058.31;5071420;28;20039;-53
2021/03/16 01:18:19;;;;;;;3.65;1.27;;;3.20;99.90;;;2.98;77.76;100054.16;5070694;28;20032;-51
2021/03/16 01:20:47;;;;;;;6.32;1.00;;;3.40;99.90;;;3.19;76.50;100067.28;5071792;28;20025;-48
2021/03/16 01:23:13;;;;;;;3.13;1.20;;;3.60;99.90;;;3.25;76.25;100062.53;5067921;28;20040;-52
2021/03/16 01:25:38;;;;;;;7.40;2.40;;;3.70;99.90;;;3.19;76.59;100052.66;5058340;28;20412;-51
2021/03/16 01:28:06;;;;;;;4.22;1.45;;;3.70;99.90;;;3.14;76.87;100056.47;5055209;28;20082;-51
2021/03/16 01:30:32;;;;;;;5.05;1.98;;;3.70;99.90;;;3.07;77.34;100053.50;5051300;28;20114;-50
2021/03/16 01:32:58;;;;;;;4.20;1.60;;;3.60;99.90;;;3.16;76.47;100046.91;5055693;28;20508;-51
2021/03/16 01:35:24;;;;;;;4.82;1.05;;;3.70;99.90;;;3.21;75.50;100055.13;5051299;28;20087;-52
2021/03/16 01:37:54;;;;;;;4.40;1.70;;;3.70;99.90;;;3.27;75.35;100055.53;5063887;28;20045;-51
2021/03/16 01:40:33;;;;;;;2.50;1.20;;;3.80;99.90;;;3.14;75.39;100057.31;5060471;28;20464;-49
2021/03/16 01:43:21;;;;;;;4.13;1.65;;;3.70;99.90;;;2.90;76.33;100062.38;5061639;28;20032;-49
2021/03/16 01:45:48;;;;;;;5.13;1.70;;;3.60;99.90;;;2.61;78.01;100059.25;5070709;28;20138;-48
2021/03/16 01:48:29;;;;;;;4.97;1.85;;;3.30;99.90;;;2.36;78.50;100050.72;5063449;28;20072;-49
2021/03/16 01:50:55;;;;;;;6.22;2.17;;;3.10;99.90;;;2.15;79.23;100048.63;5051042;28;20464;-48
2021/03/16 01:53:21;;;;;;;4.60;1.42;;;2.90;99.90;;;2.03;79.68;100059.72;5064289;28;20028;-47
2021/03/16 01:55:51;;;;;;;4.72;1.95;;;2.70;99.90;;;1.94;79.87;100058.56;5054093;28;20358;-46
2021/03/16 01:58:18;;;;;;;5.93;1.83;;;2.60;99.90;;;1.87;80.08;100048.81;5057504;28;20329;-48
2021/03/16 02:00:44;;;;;;;7.25;2.38;;;2.50;99.90;;;1.80;80.24;100045.81;5070635;28;20044;-52
2021/03/16 02:03:12;;;;;;;4.20;2.10;;;2.40;99.90;;;1.72;80.25;100047.22;5066772;28;20415;-53
2021/03/16 02:05:40;;;;;;;5.22;1.88;;;2.40;99.90;;;1.70;80.07;100039.63;5070814;28;20031;-51
2021/03/16 02:08:24;;;;;;;5.93;1.90;;;2.30;99.90;;;1.63;80.58;100040.91;5066518;28;20047;-53
2021/03/16 02:11:18;;;;;;;5.47;2.13;;;2.30;99.90;;;1.59;81.11;100042.03;5066388;28;20121;-48
2021/03/16 02:14:05;;;;;;;4.15;2.17;;;2.20;99.90;;;1.47;81.22;100041.06;5048163;28;20411;-52
2021/03/16 02:16:52;;;;;;;7.25;3.50;;;2.10;99.90;;;1.33;81.39;100038.56;5054107;28;20036;-51
2021/03/16 02:19:50;;;;;;;4.68;3.17;;;2.00;99.90;;;1.25;81.87;100030.53;5048176;28;20064;-51
2021/03/16 02:22:17;;;;;;;6.18;3.10;;;1.90;99.90;;;1.21;81.97;100029.06;5053757;28;20493;-52
2021/03/16 02:25:37;;;;;;;6.18;3.55;;;1.80;99.90;;;1.15;82.19;100044.84;5047872;28;20372;-52
2021/03/16 02:28:28;;;;;;;7.05;3.63;;;1.80;99.90;;;1.08;82.68;100044.38;5053490;28;20040;-53
2021/03/16 02:30:57;;;;;;;5.88;3.63;;;1.70;99.90;;;1.06;82.42;100035.97;5050224;28;20036;-51
2021/03/16 02:33:25;;;;;;;5.68;4.00;;;1.70;99.90;;;1.05;82.14;100038.63;5066112;28;20039;-51
2021/03/16 02:35:52;;;;;;;5.90;4.07;;;1.70;99.90;;;1.10;82.26;100034.03;5051180;28;20454;-51
2021/03/16 02:38:26;;;;;;;9.70;4.22;;;1.70;99.90;;;1.11;81.83;100030.53;5069253;28;20197;-48
2021/03/16 02:43:27;;;;;;;3.17;0.60;;;1.90;99.90;;;2.10;77.86;100034.44;4831964;22;20061;-49
2021/03/16 02:45:53;;;;;;;3.17;0.88;;;2.30;99.90;;;2.42;76.67;100040.00;5009944;28;20029;-51
2021/03/16 02:48:21;;;;;;;2.55;1.27;;;2.80;99.90;;;2.51;76.54;100034.25;5009097;28;20044;-54
2021/03/16 02:50:47;;;;;;;3.17;1.40;;;3.00;99.90;;;2.54;77.18;100039.19;4992631;28;20053;-53
2021/03/16 02:53:16;;;;;;;7.07;3.45;;;3.00;99.90;;;2.24;77.43;100031.78;5007699;28;20136;-52
2021/03/16 02:55:43;;;;;;;5.43;1.95;;;2.90;99.90;;;2.13;77.93;100032.50;5008551;28;20038;-52
2021/03/16 02:58:10;;;;;;;3.72;0.82;;;2.80;99.90;;;2.26;76.99;100030.75;4990744;28;20201;-54
2021/03/16 03:00:38;;;;;;;1.42;0.65;;;2.80;99.90;;;2.44;76.04;100041.53;5009024;28;20446;-53
2021/03/16 03:03:06;;;;;;;1.42;0.60;;;2.90;99.90;;;2.58;75.60;100043.19;4991429;28;20132;-52
2021/03/16 03:05:36;;;;;;;5.65;1.35;;;3.00;99.90;;;2.60;75.08;100047.31;5008704;28;20124;-49
2021/03/16 03:08:08;;;;;;;2.67;0.70;;;3.10;99.90;;;2.50;75.91;100064.28;5008581;28;20034;-54
2021/03/16 03:10:34;;;;;;;3.28;0.77;;;3.10;99.90;;;2.64;75.42;100061.59;5008840;28;20123;-51
2021/03/16 03:13:00;;;;;;;2.70;0.80;;;3.10;99.90;;;2.59;75.70;100062.84;5008108;28;20116;-55
2021/03/16 03:15:26;;;;;;;2.85;0.80;;;3.20;99.90;;;2.55;75.98;100064.78;5008624;28;20672;-49
2021/03/16 03:17:52;;;;;;;2.78;1.00;;;3.10;99.90;;;2.52;75.97;100069.31;5009739;28;20044;-47
2021/03/16 03:20:18;;;;;;;5.13;1.45;;;3.10;99.90;;;2.49;76.52;100061.81;5008326;28;20040;-48
2021/03/16 03:22:45;;;;;;;2.40;0.80;;;3.10;99.90;;;2.50;76.62;100063.47;5008661;28;20044;-50
2021/03/16 03:25:37;;;;;;;3.28;0.90;;;3.20;99.90;;;2.64;76.40;100071.06;5007575;28;20083;-50
2021/03/16 03:28:16;;;;;;;2.50;0.75;;;3.10;99.90;;;2.67;75.85;100076.84;4991209;28;20092;-51
2021/03/16 03:30:45;;;;;;;3.38;0.60;;;3.20;99.90;;;2.69;75.69;100079.31;5008657;28;20048;-48
2021/03/16 03:33:12;;;;;;;1.58;0.60;;;3.20;99.90;;;2.74;75.38;100086.72;4991239;28;20384;-50
2021/03/16 03:35:39;;;;;;;1.70;0.40;;;3.30;99.90;;;2.74;75.11;100089.28;4990682;28;20076;-51
2021/03/16 03:38:08;;;;;;;3.00;0.45;;;3.30;99.90;;;2.76;74.74;100084.88;4991446;28;20037;-51
2021/03/16 03:40:35;;;;;;;1.25;0.45;;;3.30;99.90;;;2.78;75.02;100088.97;4987807;28;20042;-52
2021/03/16 03:43:05;;;;;;;3.03;0.77;;;3.30;99.90;;;2.76;75.45;100090.84;5007851;28;20075;-53
2021/03/16 03:45:35;;;;;;;4.13;0.85;;;3.30;99.90;;;2.68;75.83;100098.25;4986996;28;20041;-51
2021/03/16 03:48:06;;;;;;;3.67;0.93;;;3.30;99.90;;;2.66;76.29;100097.53;4990596;28;20030;-49
2021/03/16 03:50:33;;;;;;;2.00;0.80;;;3.20;99.90;;;2.72;76.31;100109.16;5007850;28;20496;-49
2021/03/16 03:53:00;;;;;;;1.67;0.63;;;3.20;99.90;;;2.78;75.93;100109.56;4989086;28;20033;-50
2021/03/16 03:55:28;;;;;;;3.70;0.57;;;3.30;99.90;;;2.85;74.85;100109.94;5008020;28;20050;-48
2021/03/16 03:57:56;;;;;;;3.38;0.40;;;3.30;99.90;;;2.99;73.09;100105.50;4991104;28;20041;-52
2021/03/16 04:00:23;;;;;;;2.90;0.57;;;3.40;99.90;;;3.07;72.87;100106.75;5006419;28;20133;-52
2021/03/16 04:02:50;;;;;;;1.27;0.30;;;3.50;99.90;;;3.04;72.45;100106.94;4990090;28;20390;-49
2021/03/16 04:05:18;;;;;;;2.60;0.30;;;3.60;99.90;;;2.95;73.29;100104.06;5007784;28;20080;-52
2021/03/16 04:07:45;;;;;;;2.63;0.82;;;3.50;99.90;;;2.92;73.69;100106.03;4990272;28;20092;-48
2021/03/16 04:10:13;;;;;;;2.47;0.60;;;3.50;99.90;;;2.81;74.68;100114.50;4989251;28;20038;-52
2021/03/16 04:12:39;;;;;;;2.03;0.50;;;3.40;99.90;;;2.77;75.00;100118.19;5007806;28;20074;-50
2021/03/16 04:15:10;;;;;;;4.95;0.75;;;3.40;99.90;;;2.69;75.26;100115.31;5006537;28;20128;-52
2021/03/16 04:17:37;;;;;;;4.22;0.52;;;3.30;99.90;;;2.65;75.79;100121.59;5008361;28;20127;-53
2021/03/16 04:20:06;;;;;;;3.05;0.63;;;3.20;99.90;;;2.66;75.88;100120.66;5007395;28;20064;-51
2021/03/16 04:22:32;;;;;;;3.35;0.82;;;3.20;99.90;;;2.64;75.95;100122.53;5008068;28;20046;-50
2021/03/16 04:24:59;;;;;;;2.95;0.52;;;3.20;99.90;;;2.69;75.67;100117.88;5007136;28;20038;-48
2021/03/16 04:27:25;;;;;;;2.92;0.77;;;3.20;99.90;;;2.70;75.53;100124.69;5007455;28;20038;-53
2021/03/16 04:29:52;;;;;;;4.10;0.95;;;3.20;99.90;;;2.71;75.24;100126.34;5007220;28;20038;-50
2021/03/16 04:32:19;;;;;;;2.72;0.30;;;3.20;99.90;;;2.66;75.15;100136.09;5007543;28;20034;-51
2021/03/16 04:34:45;;;;;;;5.85;0.60;;;3.20;99.90;;;2.64;75.09;100127.66;5007612;28;20064;-53
2021/03/16 04:37:12;;;;;;;1.40;0.40;;;3.20;99.90;;;2.59;74.98;100129.72;5008497;28;20045;-52
2021/03/16 04:39:38;;;;;;;1.50;0.35;;;3.20;99.90;;;2.64;74.90;100141.34;5008465;28;20045;-51
2021/03/16 04:42:04;;;;;;;2.47;0.70;;;3.20;99.90;;;2.65;74.90;100140.41;5011193;28;20052;-50
2021/03/16 04:44:30;;;;;;;2.17;0.68;;;3.20;99.90;;;2.60;74.75;100131.34;5011006;28;20040;-50
2021/03/16 04:46:56;;;;;;;2.88;0.65;;;3.20;99.90;;;2.55;74.97;100133.41;5010846;28;20060;-50
2021/03/16 04:49:22;;;;;;;1.92;0.55;;;3.10;99.90;;;2.51;75.26;100137.09;5011004;28;20567;-52
2021/03/16 04:51:48;;;;;;;3.60;0.55;;;3.10;99.90;;;2.47;75.65;100144.19;5011476;28;20034;-49
2021/03/16 04:54:14;;;;;;;3.03;0.63;;;3.10;99.90;;;2.46;75.95;100149.44;5009829;28;20034;-49
2021/03/16 04:56:40;;;;;;;8.63;1.50;;;3.00;99.90;;;2.39;76.00;100143.06;5011954;28;20508;-51
2021/03/16 04:59:06;;;;;;;4.13;0.80;;;3.00;99.90;;;2.29;76.03;100145.41;5010890;28;20350;-53
2021/03/16 05:01:32;;;;;;;2.70;1.13;;;2.90;99.90;;;2.11;76.50;100152.56;5010568;28;20041;-52
2021/03/16 05:03:58;;;;;;;4.93;0.82;;;2.80;99.90;;;1.97;76.59;100147.47;5012120;28;20112;-51
2021/03/16 05:06:24;;;;;;;5.93;1.42;;;2.70;99.90;;;1.76;77.43;100153.97;5010709;28;20044;-51
2021/03/16 05:08:51;;;;;;;3.20;1.55;;;2.50;99.90;;;1.59;77.69;100160.97;5010820;28;20501;-53
2021/03/16 05:11:17;;;;;;;4.30;0.90;;;2.30;99.90;;;1.71;77.48;100161.16;5010715;28;20587;-48
2021/03/16 05:13:43;;;;;;;3.92;0.82;;;2.30;99.90;;;1.94;77.13;100174.19;5011529;28;20038;-52
2021/03/16 05:16:09;;;;;;;2.63;0.70;;;2.40;99.90;;;2.14;76.70;100172.94;5009716;28;20623;-51
2021/03/16 05:18:36;;;;;;;2.78;0.80;;;2.60;99.90;;;2.21;76.46;100166.47;5011666;28;20533;-52
2021/03/16 05:21:03;;;;;;;3.80;0.95;;;2.70;99.90;;;2.29;76.79;100173.69;5009367;28;20397;-50
2021/03/16 05:23:28;;;;;;;3.42;0.98;;;2.80;99.90;;;2.26;77.45;100171.31;5011479;28;20026;-50
2021/03/16 05:25:54;;;;;;;4.60;0.90;;;2.80;99.90;;;2.25;77.41;100167.09;5009998;28;20037;-53
2021/03/16 05:28:20;;;;;;;5.97;0.60;;;2.80;99.90;;;2.28;78.20;100175.44;5011209;28;20426;-52
2021/03/16 05:30:46;;;;;;;7.00;1.52;;;2.80;99.90;;;2.29;77.67;100171.13;5009369;28;20042;-54
2021/03/16 05:33:12;;;;;;;9.02;1.05;;;2.80;99.90;;;2.39;78.49;100163.63;5011628;28;20026;-48
2021/03/16 05:35:38;;;;;;;6.10;1.05;;;3.00;99.90;;;2.37;77.01;100180.88;5010407;28;20037;-54
2021/03/16 05:38:04;;;;;;;5.13;1.00;;;2.90;99.90;;;2.44;77.35;100185.53;5011216;28;20029;-50
2021/03/16 05:40:33;;;;;;;5.13;0.98;;;3.00;99.90;;;2.53;76.96;100184.13;5008989;28;20041;-53
2021/03/16 05:42:59;;;;;;;4.72;1.02;;;3.10;99.90;;;2.59;75.75;100186.28;5010755;28;20427;-52
2021/03/16 05:45:26;;;;;;;5.20;2.20;;;3.20;99.90;;;2.64;74.91;100185.06;5009684;28;20051;-50
2021/03/16 05:47:53;;;;;;;4.65;2.40;;;3.30;99.90;;;2.50;75.37;100189.47;5010602;28;20042;-55
2021/03/16 05:50:20;;;;;;;7.78;3.38;;;3.20;99.90;;;2.49;75.97;100192.97;4994096;28;20040;-54
2021/03/16 05:52:46;;;;;;;5.20;2.85;;;3.20;99.90;;;3.13;73.88;100193.84;5009399;28;20045;-50
2021/03/16 05:55:13;;;;;;;5.53;2.95;;;3.30;99.90;;;3.81;71.17;100198.53;5008933;28;20125;-50
2021/03/16 05:57:40;;;;;;;10.57;4.57;;;3.70;99.90;;;3.72;70.87;100202.63;5010928;28;20529;-50
2021/03/16 06:00:08;;;;;;;8.65;4.50;;;4.00;99.90;;;3.63;71.76;100198.91;5008735;28;20034;-50
2021/03/16 06:02:37;;;;;;;7.38;4.05;;;4.30;99.90;;;4.13;68.47;100215.16;5009816;28;20188;-51
2021/03/16 06:05:26;;;;;;;5.70;1.10;;;5.40;99.90;;;5.00;64.97;100206.97;5009472;28;20062;-50
2021/03/16 06:07:52;;;;;;;2.10;0.68;;;6.90;96.00;;;5.30;65.98;100213.34;4992887;28;20037;-53
2021/03/16 06:10:21;;;;;;;9.40;1.95;;;7.40;93.80;;;5.91;65.19;100216.38;5008607;28;20067;-50
2021/03/16 06:12:48;;;;;;;1.80;0.60;;;8.40;92.20;;;6.57;61.99;100214.50;5010588;28;20543;-49
2021/03/16 06:15:20;;;;;;;6.70;0.68;;;9.70;78.60;;;6.11;63.08;100225.16;5009593;28;20053;-51
2021/03/16 06:17:54;;;;;;;3.92;1.10;;;8.80;80.60;;;5.92;64.64;100220.59;5009308;28;20580;-55
2021/03/16 06:20:34;;;;;;;3.38;0.80;;;8.00;87.30;;;5.64;63.45;100227.91;5009203;28;20034;-52
2021/03/16 06:23:12;;;;;;;2.97;0.77;;;7.00;90.90;;;5.18;64.26;100233.19;5009924;28;20513;-51
2021/03/16 06:25:41;;;;;;;4.07;0.98;;;6.30;94.50;;;4.82;66.27;100236.75;5009268;28;20042;-52
2021/03/16 06:28:11;;;;;;;5.25;1.20;;;5.80;98.40;;;4.68;67.29;100239.53;5009522;28;20044;-51
2021/03/16 06:30:39;;;;;;;4.38;1.25;;;5.50;99.90;;;4.65;68.44;100247.50;5010257;28;20168;-48
2021/03/16 06:33:23;;;;;;;2.25;0.88;;;5.40;99.90;;;4.74;68.24;100246.81;5008017;28;20069;-50
2021/03/16 06:36:22;;;;;;;3.90;1.05;;;5.40;99.90;;;4.89;66.58;100256.00;5010329;28;20421;-53
2021/03/16 06:38:48;;;;;;;10.20;1.23;;;5.60;99.90;;;4.74;68.03;100251.97;4979510;28;20048;-48
2021/03/16 06:41:20;;;;;;;2.05;0.50;;;5.40;99.90;;;4.72;65.91;100256.44;5010290;28;20054;-47
2021/03/16 06:44:04;;;;;;;2.42;0.57;;;5.40;99.90;;;4.66;66.32;100270.63;5009038;28;20441;-49
2021/03/16 06:46:38;;;;;;;3.33;0.70;;;5.30;99.90;;;4.67;66.24;100271.44;5008850;28;20039;-48
2021/03/16 06:49:19;;;;;;;3.90;0.60;;;5.30;99.90;;;4.92;66.28;100273.03;5010052;28;20056;-49
2021/03/16 06:51:46;;;;;;;2.53;0.50;;;5.50;99.90;;;4.98;65.41;100273.41;5008661;28;20037;-48
2021/03/16 06:54:26;;;;;;;4.70;0.50;;;5.60;99.90;;;5.26;63.82;100279.91;4989695;28;20055;-52
2021/03/16 06:57:00;;;;;;;5.20;0.77;;;5.80;99.90;;;5.47;63.77;100287.00;5010108;28;20034;-52
2021/03/16 06:59:29;;;;;;;3.70;0.70;;;6.20;99.90;;;5.55;63.60;100285.47;5008669;28;20111;-52
2021/03/16 07:01:56;;;;;;;3.35;0.95;;;6.40;99.20;;;5.61;64.50;100292.75;5008425;28;20029;-49
2021/03/16 07:04:25;;;;;;;7.97;0.90;;;6.40;98.90;;;5.59;64.66;100297.22;5008785;28;20162;-50
2021/03/16 07:06:52;;;;;;;4.05;0.88;;;6.30;99.90;;;5.54;64.91;100294.16;5008284;28;20506;-49
2021/03/16 07:09:20;;;;;;;3.63;0.73;;;6.20;99.80;;;5.51;64.51;100294.41;5008206;28;20400;-52
2021/03/16 07:11:52;;;;;;;2.95;0.60;;;6.20;99.50;;;5.48;63.85;100302.38;5008691;28;20041;-51
2021/03/16 07:14:20;;;;;;;8.25;0.90;;;6.10;99.20;;;5.52;63.77;100308.97;5008906;28;20037;-48
2021/03/16 07:16:48;;;;;;;4.38;0.70;;;6.10;99.30;;;5.51;64.51;100306.50;5008039;28;20038;-52
2021/03/16 07:19:16;;;;;;;10.80;1.65;;;6.10;99.40;;;5.53;64.01;100318.38;5009592;28;20559;-52
2021/03/16 07:21:54;;;;;;;3.85;1.30;;;6.10;99.30;;;5.54;63.30;100317.41;4991003;28;20132;-49
2021/03/16 07:24:30;;;;;;;3.47;1.00;;;6.20;98.70;;;5.76;63.10;100318.34;5007071;28;20440;-46
2021/03/16 07:27:00;;;;;;;3.58;0.85;;;6.20;99.50;;;6.30;62.55;100321.03;5009209;28;20041;-53
2021/03/16 07:29:27;;;;;;;3.25;0.85;;;6.70;98.60;;;6.39;60.04;100322.91;5008587;28;20044;-49
2021/03/16 07:31:53;;;;;;;5.28;0.80;;;7.00;96.90;;;6.58;61.22;100319.69;5008208;28;20042;-52
2021/03/16 07:34:19;;;;;;;2.92;0.57;;;7.10;96.50;;;6.68;60.83;100322.34;5005554;28;20358;-49
2021/03/16 07:36:50;;;;;;;1.77;0.70;;;7.10;95.80;;;6.72;60.81;100321.16;5008452;28;20390;-51
2021/03/16 07:39:22;;;;;;;2.70;0.70;;;7.20;94.80;;;6.85;59.03;100314.88;4993154;28;20026;-52
2021/03/16 07:41:51;;;;;;;1.17;0.40;;;7.40;93.50;;;7.02;59.63;100326.47;5008831;28;20034;-52
2021/03/16 07:44:19;;;;;;;2.13;0.50;;;7.50;92.60;;;7.11;58.66;100324.88;4988954;28;20038;-50
2021/03/16 07:47:02;;;;;;;2.45;0.50;;;7.60;92.40;;;7.21;56.43;100331.78;5009140;28;20276;-50
2021/03/16 07:49:39;;;;;;;1.58;0.47;;;7.70;92.10;;;7.30;56.51;100331.00;5008081;28;20494;-51
2021/03/16 07:52:26;;;;;;;4.30;0.38;;;7.80;90.60;;;7.06;55.33;100338.22;5007969;28;20037;-50
2021/03/16 07:54:52;;;;;;;3.53;0.50;;;7.80;87.70;;;7.16;57.52;100333.09;5002768;28;20038;-51
2021/03/16 07:57:31;;;;;;;2.50;0.40;;;7.70;90.20;;;7.54;55.51;100338.53;5007907;28;20053;-51
2021/03/16 08:00:05;;;;;;;2.63;0.85;;;7.90;90.20;;;7.72;56.10;100346.53;5009128;28;20084;-51
2021/03/16 08:02:35;;;;;;;8.25;0.85;;;8.20;90.20;;;7.87;56.06;100337.47;5033633;22;20061;-51
2021/03/16 08:05:12;;;;;;;3.55;0.98;;;8.30;86.50;;;8.16;56.37;100340.16;5028474;28;20033;-51
2021/03/16 08:07:38;;;;;;;5.68;0.50;;;8.40;88.00;;;8.26;55.93;100341.00;5011540;28;20140;-49
2021/03/16 08:10:05;;;;;;;2.95;0.50;;;8.60;85.80;;;8.51;55.22;100339.69;4996487;28;20041;-51
2021/03/16 08:12:32;;;;;;;7.05;1.98;;;8.80;85.00;;;8.63;54.83;100343.00;4991593;28;20050;-49
2021/03/16 08:15:12;;;;;;;2.15;0.70;;;9.00;83.60;;;8.87;51.51;100350.41;5026108;28;20476;-50
2021/03/16 08:17:41;;;;;;;3.35;0.40;;;9.20;81.60;;;9.08;53.00;100347.66;5026229;28;20067;-48
2021/03/16 08:20:08;;;;;;;1.60;0.25;;;9.40;79.40;;;9.21;51.22;100356.00;5008289;28;20068;-50
2021/03/16 08:22:37;;;;;;;4.22;0.40;;;9.50;75.30;;;9.24;51.29;100348.75;5032012;28;20104;-51
2021/03/16 08:25:09;;;;;;;1.55;0.50;;;9.50;74.00;;;9.27;50.52;100345.88;5028306;28;20120;-49
2021/03/16 08:27:37;;;;;;;1.52;0.50;;;9.60;75.50;;;9.49;49.84;100352.53;5033549;28;20037;-48
2021/03/16 08:30:28;;;;;;;2.45;0.73;;;9.80;73.80;;;10.07;47.58;100354.94;5029224;28;20036;-48
2021/03/16 08:32:54;;;;;;;5.43;0.60;;;10.10;74.00;;;10.13;49.52;100350.94;5032117;28;20060;-48
2021/03/16 08:35:20;;;;;;;3.17;0.63;;;10.50;71.20;;;10.19;49.26;100350.38;5028272;28;20459;-47
2021/03/16 08:37:51;;;;;;;2.20;0.32;;;10.60;70.80;;;10.24;48.41;100349.00;5029904;28;20036;-48
2021/03/16 08:40:23;;;;;;;5.00;0.30;;;10.60;70.80;;;10.48;45.85;100355.44;5028327;28;20051;-47
2021/03/16 08:42:49;;;;;;;1.45;0.25;;;10.80;69.00;;;10.58;47.43;100357.03;5009505;28;20044;-48
2021/03/16 08:45:31;;;;;;;2.97;0.30;;;10.90;66.40;;;10.42;44.60;100354.22;5027928;28;20034;-51
2021/03/16 08:48:02;;;;;;;2.08;0.40;;;10.90;64.10;;;10.41;45.63;100356.97;5027948;28;20033;-49
2021/03/16 08:50:29;;;;;;;2.42;0.63;;;10.90;62.40;;;10.63;47.01;100360.00;5031529;28;20497;-53
2021/03/16 08:52:55;;;;;;;3.60;0.28;;;11.00;66.20;;;10.91;46.30;100358.16;5035959;28;20041;-50
2021/03/16 08:55:29;;;;;;;2.85;0.40;;;11.20;65.60;;;10.77;43.36;100361.28;5026438;28;20075;-48
2021/03/16 08:57:56;;;;;;;1.80;0.30;;;11.30;64.10;;;10.90;46.21;100359.13;5010005;28;20069;-48
2021/03/16 09:00:30;;;;;;;4.18;0.30;;;11.30;63.90;;;11.09;45.88;100355.53;5026815;28;20033;-46
2021/03/16 09:02:56;;;;;;;1.27;0.20;;;11.50;64.50;;;11.41;44.97;100362.78;5008983;28;20045;-51
2021/03/16 09:05:32;;;;;;;0.57;0.20;;;11.80;62.70;;;11.84;42.68;100354.09;5009466;28;20052;-51
2021/03/16 09:08:04;;;;;;;0.88;0.20;;;12.00;61.80;;;11.64;43.09;100350.06;5024485;28;20409;-50
2021/03/16 09:10:31;;;;;;;0.45;0.10;;;12.10;57.80;;;11.34;43.41;100359.19;5026636;28;20065;-49
2021/03/16 09:13:01;;;;;;;0.60;0.20;;;11.90;58.90;;;11.60;42.68;100351.34;5042062;28;20037;-48
2021/03/16 09:15:33;;;;;;;2.53;0.20;;;12.00;58.90;;;11.97;40.44;100348.47;5029973;28;20041;-50
2021/03/16 09:18:08;;;;;;;2.45;0.22;;;12.30;60.10;;;12.35;40.97;100349.75;5008419;28;20030;-52
2021/03/16 09:20:39;;;;;;;0.98;0.20;;;12.60;60.50;;;12.56;42.33;100349.31;5016310;28;20038;-47
2021/03/16 09:23:11;;;;;;;2.70;0.30;;;12.80;59.90;;;12.60;41.84;100338.38;5027747;28;20025;-46
2021/03/16 09:25:46;;;;;;;2.53;0.32;;;12.90;59.30;;;12.70;40.11;100346.09;5026597;28;20207;-49
2021/03/16 09:28:28;;;;;;;1.38;0.30;;;13.10;58.70;;;12.87;39.12;100345.13;5033571;28;20033;-48
2021/03/16 09:30:56;;;;;;;1.35;0.20;;;13.20;58.30;;;12.91;41.06;100340.38;5038392;28;20083;-47
2021/03/16 09:33:25;;;;;;;3.08;0.30;;;13.30;57.90;;;13.03;41.52;100346.13;5013224;28;20073;-50
2021/03/16 09:36:00;;;;;;;0.73;0.20;;;13.40;58.20;;;13.13;37.81;100347.59;5013184;28;20087;-49
2021/03/16 09:38:27;;;;;;;1.90;0.20;;;13.50;55.80;;;13.21;40.61;100347.63;5029126;28;20033;-52
2021/03/16 09:40:54;;;;;;;1.80;0.50;;;13.60;56.50;;;13.40;39.83;100340.38;5044213;28;20207;-48
2021/03/16 09:43:33;;;;;;;0.40;0.10;;;13.70;55.50;;;13.49;37.49;100344.63;5050729;28;20021;-47
2021/03/16 09:46:06;;;;;;;0.95;0.10;;;13.80;53.60;;;13.55;37.47;100339.56;5028555;28;20037;-48
2021/03/16 09:48:33;;;;;;;0.65;0.10;;;13.90;53.60;;;13.65;37.46;100339.38;5029474;28;20038;-55
2021/03/16 09:51:11;;;;;;;0.60;0.13;;;14.00;53.10;;;13.70;33.34;100336.25;5028749;28;20132;-51
2021/03/16 09:53:38;;;;;;;0.10;0.00;;;14.10;50.90;;;13.82;36.56;100334.88;5028312;28;20079;-49
2021/03/16 09:56:06;;;;;;;0.47;0.10;;;14.20;49.70;;;14.08;35.61;100345.13;5010356;28;20071;-45
2021/03/16 09:58:32;;;;;;;0.45;0.10;;;14.40;51.20;;;14.18;36.11;100341.28;5031666;28;20127;-48
2021/03/16 10:01:03;;;;;;;0.50;0.10;;;14.40;50.40;;;14.28;33.31;100343.72;5030103;28;20777;-50
2021/03/16 10:03:29;;;;;;;0.50;0.08;;;14.60;50.40;;;14.29;35.12;100335.69;5026165;28;20059;-54
2021/03/16 10:06:06;;;;;;;0.55;0.10;;;14.70;48.60;;;14.47;33.05;100335.47;5034508;28;20037;-47
2021/03/16 10:08:33;;;;;;;0.55;0.10;;;14.80;48.90;;;14.58;34.64;100337.69;5037393;28;20045;-48
2021/03/16 10:11:00;;;;;;;2.38;0.10;;;15.00;48.20;;;14.69;34.70;100333.81;5035667;28;20048;-55
2021/03/16 10:13:45;;;;;;;0.47;0.10;;;15.10;48.80;;;14.93;31.48;100320.56;5030552;28;20040;-51
2021/03/16 10:16:15;;;;;;;2.60;0.32;;;15.30;47.60;;;14.99;32.17;100323.47;5039117;28;20037;-48
2021/03/16 10:18:48;;;;;;;1.83;0.10;;;15.40;45.80;;;15.02;33.40;100321.31;5030311;28;20550;-50
2021/03/16 10:21:15;;;;;;;0.70;0.10;;;15.50;47.00;;;15.20;33.70;100318.34;5029537;28;20486;-46
2021/03/16 10:23:41;;;;;;;0.30;0.10;;;15.50;47.60;;;15.47;32.61;100325.66;5028666;28;20045;-49
2021/03/16 10:26:11;;;;;;;0.68;0.00;;;15.80;46.40;;;15.40;30.29;100310.78;5040425;28;20040;-48
2021/03/16 10:28:44;;;;;;;0.60;0.05;;;15.90;44.50;;;15.28;29.64;100307.78;5032798;28;20484;-49
2021/03/16 10:31:25;;;;;;;0.30;0.00;;;15.90;45.40;;;14.83;28.62;100324.41;5030227;28;20140;-47
2021/03/16 10:33:54;;;;;;;0.20;0.00;;;15.50;41.00;;;15.33;29.03;100309.88;5029952;28;20038;-50
2021/03/16 10:36:21;;;;;;;0.30;0.00;;;15.70;43.10;;;15.30;27.92;100311.03;5026790;28;20037;-52